sensor_id;sensor_type;location;lat;lon;timestamp;pressure;altitude;pressure_sealevel;temperature;humidity
15272;BME280;7737;51.578;7.268;2023-05-21T00:01:08;101237.09;;;13.21;100.00
15272;BME280;7737;51.578;7.268;2023-05-21T00:03:40;101227.41;;;13.20;100.00
15272;BME280;7737;51.578;7.268;2023-05-21T00:06:07;101230.78;;;13.07;100.00
15272;BME280;7737;51.578;7.268;2023-05-21T00:08:33;101236.09;;;13.07;100.00
15272;BME280;7737;51.578;7.268;2023-05-21T00:11:01;101231.72;;;13.23;100.00
15272;BME280;7737;51.578;7.268;2023-05-21T00:13:28;101222.66;;;13.08;100.00
15272;BME280;7737;51.578;7.268;2023-05-21T00:15:54;101231.03;;;13.01;100.00
15272;BME280;7737;51.578;7.268;2023-05-21T00:18:21;101224.31;;;13.11;100.00
15272;BME280;7737;51.578;7.268;2023-05-21T00:20:49;101211.84;;;13.11;100.00
15272;BME280;7737;51.578;7.268;2023-05-21T00:23:16;101218.06;;;13.12;100.00
15272;BME280;7737;51.578;7.268;2023-05-21T00:25:43;101213.13;;;13.03;100.00
15272;BME280;7737;51.578;7.268;2023-05-21T00:28:12;101208.66;;;13.03;100.00
15272;BME280;7737;51.578;7.268;2023-05-21T00:30:38;101212.13;;;13.05;100.00
15272;BME280;7737;51.578;7.268;2023-05-21T00:33:07;101212.50;;;12.98;100.00
15272;BME280;7737;51.578;7.268;2023-05-21T00:35:34;101208.50;;;13.06;100.00
15272;BME280;7737;51.578;7.268;2023-05-21T00:38:01;101211.94;;;13.10;100.00
15272;BME280;7737;51.578;7.268;2023-05-21T00:40:27;101205.81;;;13.08;100.00
15272;BME280;7737;51.578;7.268;2023-05-21T00:42:55;101201.44;;;13.05;100.00
15272;BME280;7737;51.578;7.268;2023-05-21T00:45:23;101192.75;;;13.02;100.00
15272;BME280;7737;51.578;7.268;2023-05-21T00:47:50;101200.59;;;13.05;100.00
15272;BME280;7737;51.578;7.268;2023-05-21T00:50:19;101198.59;;;13.10;100.00
15272;BME280;7737;51.578;7.268;2023-05-21T00:52:47;101196.09;;;13.05;100.00
15272;BME280;7737;51.578;7.268;2023-05-21T00:55:14;101193.53;;;13.04;100.00
15272;BME280;7737;51.578;7.268;2023-05-21T00:57:41;101197.72;;;13.09;100.00
15272;BME280;7737;51.578;7.268;2023-05-21T01:00:08;101191.72;;;13.04;100.00
15272;BME280;7737;51.578;7.268;2023-05-21T01:02:36;101191.50;;;13.09;100.00
15272;BME280;7737;51.578;7.268;2023-05-21T01:05:04;101193.84;;;12.98;100.00
15272;BME280;7737;51.578;7.268;2023-05-21T01:07:31;101188.50;;;12.98;100.00
15272;BME280;7737;51.578;7.268;2023-05-21T01:09:59;101189.53;;;12.95;100.00
15272;BME280;7737;51.578;7.268;2023-05-21T01:12:26;101187.25;;;12.88;100.00
15272;BME280;7737;51.578;7.268;2023-05-21T01:14:52;101190.69;;;12.90;100.00
15272;BME280;7737;51.578;7.268;2023-05-21T01:17:20;101189.38;;;12.81;100.00
15272;BME280;7737;51.578;7.268;2023-05-21T01:19:50;101185.59;;;12.85;100.00
15272;BME280;7737;51.578;7.268;2023-05-21T01:22:20;101181.13;;;12.86;100.00
15272;BME280;7737;51.578;7.268;2023-05-21T01:24:50;101183.97;;;12.82;100.00
15272;BME280;7737;51.578;7.268;2023-05-21T01:27:17;101183.66;;;12.89;100.00
15272;BME280;7737;51.578;7.268;2023-05-21T01:29:43;101173.44;;;12.97;100.00
15272;BME280;7737;51.578;7.268;2023-05-21T01:32:14;101177.81;;;12.98;100.00
15272;BME280;7737;51.578;7.268;2023-05-21T01:34:47;101177.97;;;12.95;100.00
15272;BME280;7737;51.578;7.268;2023-05-21T01:37:20;101174.53;;;12.93;100.00
15272;BME280;7737;51.578;7.268;2023-05-21T01:39:52;101177.97;;;12.95;100.00
15272;BME280;7737;51.578;7.268;2023-05-21T01:42:22;101173.75;;;12.91;100.00
15272;BME280;7737;51.578;7.268;2023-05-21T01:44:50;101172.97;;;12.89;100.00
15272;BME280;7737;51.578;7.268;2023-05-21T01:47:21;101174.88;;;12.87;100.00
15272;BME280;7737;51.578;7.268;2023-05-21T01:49:49;101170.06;;;12.93;100.00
15272;BME280;7737;51.578;7.268;2023-05-21T01:52:16;101167.66;;;12.89;100.00
15272;BME280;7737;51.578;7.268;2023-05-21T01:54:42;101164.88;;;12.90;100.00
15272;BME280;7737;51.578;7.268;2023-05-21T01:57:10;101169.75;;;12.82;100.00
15272;BME280;7737;51.578;7.268;2023-05-21T01:59:36;101168.19;;;12.78;100.00
15272;BME280;7737;51.578;7.268;2023-05-21T02:02:03;101163.22;;;12.88;100.00
15272;BME280;7737;51.578;7.268;2023-05-21T02:04:30;101161.53;;;12.87;100.00
15272;BME280;7737;51.578;7.268;2023-05-21T02:06:56;101155.38;;;12.84;100.00
15272;BME280;7737;51.578;7.268;2023-05-21T02:09:23;101154.91;;;12.94;100.00
15272;BME280;7737;51.578;7.268;2023-05-21T02:11:49;101157.91;;;12.88;100.00
15272;BME280;7737;51.578;7.268;2023-05-21T02:14:17;101154.91;;;12.94;100.00
15272;BME280;7737;51.578;7.268;2023-05-21T02:16:44;101152.56;;;12.88;100.00
15272;BME280;7737;51.578;7.268;2023-05-21T02:19:11;101149.75;;;12.91;100.00
15272;BME280;7737;51.578;7.268;2023-05-21T02:21:37;101146.91;;;12.76;100.00
15272;BME280;7737;51.578;7.268;2023-05-21T02:24:04;101148.19;;;12.87;100.00
15272;BME280;7737;51.578;7.268;2023-05-21T02:26:31;101149.91;;;12.88;100.00
15272;BME280;7737;51.578;7.268;2023-05-21T02:28:57;101139.84;;;12.93;100.00
15272;BME280;7737;51.578;7.268;2023-05-21T02:31:25;101142.84;;;12.87;100.00
15272;BME280;7737;51.578;7.268;2023-05-21T02:33:52;101137.31;;;12.90;100.00
15272;BME280;7737;51.578;7.268;2023-05-21T02:36:18;101149.59;;;12.94;100.00
15272;BME280;7737;51.578;7.268;2023-05-21T02:38:44;101141.63;;;12.92;100.00
15272;BME280;7737;51.578;7.268;2023-05-21T02:41:12;101144.09;;;12.97;100.00
15272;BME280;7737;51.578;7.268;2023-05-21T02:43:38;101146.97;;;12.92;100.00
15272;BME280;7737;51.578;7.268;2023-05-21T02:46:05;101148.81;;;12.92;100.00
15272;BME280;7737;51.578;7.268;2023-05-21T02:48:33;101145.13;;;12.94;100.00
15272;BME280;7737;51.578;7.268;2023-05-21T02:51:00;101149.59;;;12.94;100.00
15272;BME280;7737;51.578;7.268;2023-05-21T02:53:26;101153.28;;;12.91;100.00
15272;BME280;7737;51.578;7.268;2023-05-21T02:55:53;101152.88;;;12.81;100.00
15272;BME280;7737;51.578;7.268;2023-05-21T02:58:20;101161.06;;;12.78;100.00
15272;BME280;7737;51.578;7.268;2023-05-21T03:00:49;101151.47;;;12.74;100.00
15272;BME280;7737;51.578;7.268;2023-05-21T03:03:16;101150.84;;;12.69;100.00
15272;BME280;7737;51.578;7.268;2023-05-21T03:05:43;101150.84;;;12.69;100.00
15272;BME280;7737;51.578;7.268;2023-05-21T03:08:10;101148.50;;;12.63;100.00
15272;BME280;7737;51.578;7.268;2023-05-21T03:10:37;101158.38;;;12.61;100.00
15272;BME280;7737;51.578;7.268;2023-05-21T03:13:03;101158.53;;;12.58;100.00
15272;BME280;7737;51.578;7.268;2023-05-21T03:15:30;101154.16;;;12.57;100.00
15272;BME280;7737;51.578;7.268;2023-05-21T03:17:57;101147.19;;;12.55;100.00
15272;BME280;7737;51.578;7.268;2023-05-21T03:20:24;101143.50;;;12.57;100.00
15272;BME280;7737;51.578;7.268;2023-05-21T03:22:53;101147.00;;;12.58;100.00
15272;BME280;7737;51.578;7.268;2023-05-21T03:25:20;101140.97;;;12.54;100.00
15272;BME280;7737;51.578;7.268;2023-05-21T03:27:49;101146.47;;;12.51;100.00
15272;BME280;7737;51.578;7.268;2023-05-21T03:30:16;101138.94;;;12.59;100.00
15272;BME280;7737;51.578;7.268;2023-05-21T03:32:42;101148.72;;;12.59;100.00
15272;BME280;7737;51.578;7.268;2023-05-21T03:35:09;101143.69;;;12.53;100.00
15272;BME280;7737;51.578;7.268;2023-05-21T03:37:35;101148.81;;;12.57;100.00
15272;BME280;7737;51.578;7.268;2023-05-21T03:40:04;101138.06;;;12.59;100.00
15272;BME280;7737;51.578;7.268;2023-05-21T03:42:31;101144.41;;;12.56;100.00
15272;BME280;7737;51.578;7.268;2023-05-21T03:44:58;101141.19;;;12.67;100.00
15272;BME280;7737;51.578;7.268;2023-05-21T03:47:24;101141.34;;;12.64;100.00
15272;BME280;7737;51.578;7.268;2023-05-21T03:49:51;101145.28;;;12.57;100.00
15272;BME280;7737;51.578;7.268;2023-05-21T03:52:17;101137.28;;;12.57;100.00
15272;BME280;7737;51.578;7.268;2023-05-21T03:54:44;101143.69;;;12.53;100.00
15272;BME280;7737;51.578;7.268;2023-05-21T03:57:12;101149.59;;;12.59;100.00
15272;BME280;7737;51.578;7.268;2023-05-21T03:59:38;101154.94;;;12.59;100.00
15272;BME280;7737;51.578;7.268;2023-05-21T04:02:05;101150.47;;;12.60;100.00
15272;BME280;7737;51.578;7.268;2023-05-21T04:04:31;101141.91;;;12.70;100.00
15272;BME280;7737;51.578;7.268;2023-05-21T04:06:58;101141.09;;;12.68;100.00
15272;BME280;7737;51.578;7.268;2023-05-21T04:09:25;101136.72;;;12.67;100.00
15272;BME280;7737;51.578;7.268;2023-05-21T04:11:51;101137.75;;;12.65;100.00
15272;BME280;7737;51.578;7.268;2023-05-21T04:14:19;101132.78;;;12.74;100.00
15272;BME280;7737;51.578;7.268;2023-05-21T04:16:46;101143.56;;;12.73;100.00
15272;BME280;7737;51.578;7.268;2023-05-21T04:19:13;101149.72;;;12.73;100.00
15272;BME280;7737;51.578;7.268;2023-05-21T04:21:39;101151.31;;;12.77;100.00
15272;BME280;7737;51.578;7.268;2023-05-21T04:24:09;101152.97;;;12.80;100.00
15272;BME280;7737;51.578;7.268;2023-05-21T04:26:35;101144.88;;;12.81;100.00
15272;BME280;7737;51.578;7.268;2023-05-21T04:29:02;101149.28;;;12.82;100.00
15272;BME280;7737;51.578;7.268;2023-05-21T04:31:30;101153.84;;;12.80;100.00
15272;BME280;7737;51.578;7.268;2023-05-21T04:33:57;101145.72;;;12.82;100.00
15272;BME280;7737;51.578;7.268;2023-05-21T04:36:24;101153.03;;;12.96;100.00
15272;BME280;7737;51.578;7.268;2023-05-21T04:38:53;101156.47;;;12.98;100.00
15272;BME280;7737;51.578;7.268;2023-05-21T04:41:19;101150.34;;;12.96;100.00
15272;BME280;7737;51.578;7.268;2023-05-21T04:43:46;101147.38;;;13.02;100.00
15272;BME280;7737;51.578;7.268;2023-05-21T04:46:13;101155.28;;;13.03;100.00
15272;BME280;7737;51.578;7.268;2023-05-21T04:48:40;101154.41;;;13.03;100.00
15272;BME280;7737;51.578;7.268;2023-05-21T04:51:07;101147.22;;;13.05;100.00
15272;BME280;7737;51.578;7.268;2023-05-21T04:53:33;101150.53;;;13.10;100.00
15272;BME280;7737;51.578;7.268;2023-05-21T04:56:00;101149.66;;;13.09;100.00
15272;BME280;7737;51.578;7.268;2023-05-21T04:58:27;101155.72;;;13.13;100.00
15272;BME280;7737;51.578;7.268;2023-05-21T05:00:53;101157.44;;;13.14;100.00
15272;BME280;7737;51.578;7.268;2023-05-21T05:03:20;101157.97;;;13.20;100.00
15272;BME280;7737;51.578;7.268;2023-05-21T05:05:48;101158.91;;;13.19;100.00
15272;BME280;7737;51.578;7.268;2023-05-21T05:08:15;101153.66;;;13.18;100.00
15272;BME280;7737;51.578;7.268;2023-05-21T05:10:42;101158.66;;;13.24;100.00
15272;BME280;7737;51.578;7.268;2023-05-21T05:13:09;101156.84;;;13.24;100.00
15272;BME280;7737;51.578;7.268;2023-05-21T05:15:36;101150.06;;;13.34;100.00
15272;BME280;7737;51.578;7.268;2023-05-21T05:18:03;101147.34;;;13.36;100.00
15272;BME280;7737;51.578;7.268;2023-05-21T05:20:30;101140.25;;;13.35;100.00
15272;BME280;7737;51.578;7.268;2023-05-21T05:22:58;101147.50;;;13.33;100.00
15272;BME280;7737;51.578;7.268;2023-05-21T05:25:26;101139.59;;;13.47;100.00
15272;BME280;7737;51.578;7.268;2023-05-21T05:27:52;101133.13;;;13.51;100.00
15272;BME280;7737;51.578;7.268;2023-05-21T05:30:19;101139.34;;;13.52;100.00
15272;BME280;7737;51.578;7.268;2023-05-21T05:32:45;101143.91;;;13.50;100.00
15272;BME280;7737;51.578;7.268;2023-05-21T05:35:12;101149.59;;;13.59;100.00
15272;BME280;7737;51.578;7.268;2023-05-21T05:37:38;101141.09;;;13.68;100.00
15272;BME280;7737;51.578;7.268;2023-05-21T05:40:07;101142.91;;;13.68;100.00
15272;BME280;7737;51.578;7.268;2023-05-21T05:42:33;101141.88;;;13.70;100.00
15272;BME280;7737;51.578;7.268;2023-05-21T05:45:00;101135.59;;;13.71;100.00
15272;BME280;7737;51.578;7.268;2023-05-21T05:47:26;101139.78;;;13.75;100.00
15272;BME280;7737;51.578;7.268;2023-05-21T05:49:53;101141.69;;;13.73;100.00
15272;BME280;7737;51.578;7.268;2023-05-21T05:52:19;101131.19;;;13.70;100.00
15272;BME280;7737;51.578;7.268;2023-05-21T05:54:46;101129.81;;;13.79;100.00
15272;BME280;7737;51.578;7.268;2023-05-21T05:57:14;101137.81;;;13.79;100.00
15272;BME280;7737;51.578;7.268;2023-05-21T05:59:40;101140.66;;;13.76;100.00
15272;BME280;7737;51.578;7.268;2023-05-21T06:02:07;101136.00;;;13.95;100.00
15272;BME280;7737;51.578;7.268;2023-05-21T06:04:33;101127.72;;;13.99;100.00
15272;BME280;7737;51.578;7.268;2023-05-21T06:06:59;101133.06;;;14.15;100.00
15272;BME280;7737;51.578;7.268;2023-05-21T06:09:26;101132.19;;;13.99;100.00
15272;BME280;7737;51.578;7.268;2023-05-21T06:11:53;101131.16;;;14.01;100.00
15272;BME280;7737;51.578;7.268;2023-05-21T06:14:21;101131.75;;;14.07;100.00
15272;BME280;7737;51.578;7.268;2023-05-21T06:16:47;101127.09;;;14.26;100.00
15272;BME280;7737;51.578;7.268;2023-05-21T06:19:14;101128.41;;;14.34;100.00
15272;BME280;7737;51.578;7.268;2023-05-21T06:21:40;101124.41;;;14.26;100.00
15272;BME280;7737;51.578;7.268;2023-05-21T06:24:06;101114.56;;;14.42;100.00
15272;BME280;7737;51.578;7.268;2023-05-21T06:26:33;101119.06;;;14.26;100.00
15272;BME280;7737;51.578;7.268;2023-05-21T06:28:59;101120.59;;;14.30;100.00
15272;BME280;7737;51.578;7.268;2023-05-21T06:31:28;101115.56;;;14.55;100.00
15272;BME280;7737;51.578;7.268;2023-05-21T06:33:57;101114.22;;;14.48;100.00
15272;BME280;7737;51.578;7.268;2023-05-21T06:36:24;101115.22;;;14.61;100.00
15272;BME280;7737;51.578;7.268;2023-05-21T06:38:53;101113.25;;;14.49;100.00
15272;BME280;7737;51.578;7.268;2023-05-21T06:41:20;101110.78;;;14.60;100.00
15272;BME280;7737;51.578;7.268;2023-05-21T06:43:46;101100.13;;;14.74;100.00
15272;BME280;7737;51.578;7.268;2023-05-21T06:46:13;101104.53;;;14.89;100.00
15272;BME280;7737;51.578;7.268;2023-05-21T06:48:41;101113.16;;;14.94;100.00
15272;BME280;7737;51.578;7.268;2023-05-21T06:51:07;101100.44;;;15.12;100.00
15272;BME280;7737;51.578;7.268;2023-05-21T06:53:34;101107.63;;;14.97;100.00
15272;BME280;7737;51.578;7.268;2023-05-21T06:56:00;101111.13;;;14.84;100.00
15272;BME280;7737;51.578;7.268;2023-05-21T06:58:27;101097.63;;;14.85;100.00
15272;BME280;7737;51.578;7.268;2023-05-21T07:00:55;101098.81;;;14.95;100.00
15272;BME280;7737;51.578;7.268;2023-05-21T07:03:22;101095.75;;;15.15;100.00
15272;BME280;7737;51.578;7.268;2023-05-21T07:05:49;101092.53;;;15.24;100.00
15272;BME280;7737;51.578;7.268;2023-05-21T07:08:16;101089.25;;;15.05;100.00
15272;BME280;7737;51.578;7.268;2023-05-21T07:10:44;101092.03;;;15.18;100.00
15272;BME280;7737;51.578;7.268;2023-05-21T07:13:10;101096.13;;;15.09;100.00
15272;BME280;7737;51.578;7.268;2023-05-21T07:15:37;101096.13;;;15.09;100.00
15272;BME280;7737;51.578;7.268;2023-05-21T07:18:03;101087.72;;;15.01;100.00
15272;BME280;7737;51.578;7.268;2023-05-21T07:20:30;101084.06;;;15.31;100.00
15272;BME280;7737;51.578;7.268;2023-05-21T07:22:57;101088.00;;;15.39;100.00
15272;BME280;7737;51.578;7.268;2023-05-21T07:25:24;101085.22;;;15.55;100.00
15272;BME280;7737;51.578;7.268;2023-05-21T07:27:50;101089.44;;;15.31;100.00
15272;BME280;7737;51.578;7.268;2023-05-21T07:30:17;101094.03;;;15.57;100.00
15272;BME280;7737;51.578;7.268;2023-05-21T07:32:44;101093.28;;;15.55;100.00
15272;BME280;7737;51.578;7.268;2023-05-21T07:35:11;101089.53;;;15.43;100.00
15272;BME280;7737;51.578;7.268;2023-05-21T07:37:37;101088.44;;;15.74;100.00
15272;BME280;7737;51.578;7.268;2023-05-21T07:40:06;101090.63;;;15.81;100.00
15272;BME280;7737;51.578;7.268;2023-05-21T07:42:33;101095.28;;;15.92;100.00
15272;BME280;7737;51.578;7.268;2023-05-21T07:45:00;101095.44;;;15.76;100.00
15272;BME280;7737;51.578;7.268;2023-05-21T07:47:26;101089.63;;;15.97;100.00
15272;BME280;7737;51.578;7.268;2023-05-21T07:49:53;101081.28;;;16.01;100.00
15272;BME280;7737;51.578;7.268;2023-05-21T07:52:19;101080.84;;;16.34;100.00
15272;BME280;7737;51.578;7.268;2023-05-21T07:54:46;101081.84;;;16.06;100.00
15272;BME280;7737;51.578;7.268;2023-05-21T07:57:13;101079.22;;;16.31;100.00
15272;BME280;7737;51.578;7.268;2023-05-21T07:59:40;101079.31;;;16.17;100.00
15272;BME280;7737;51.578;7.268;2023-05-21T08:02:06;101081.84;;;16.45;100.00
15272;BME280;7737;51.578;7.268;2023-05-21T08:04:33;101088.44;;;16.15;100.00
15272;BME280;7737;51.578;7.268;2023-05-21T08:07:00;101080.47;;;16.13;100.00
15272;BME280;7737;51.578;7.268;2023-05-21T08:09:26;101080.59;;;16.24;100.00
15272;BME280;7737;51.578;7.268;2023-05-21T08:11:53;101075.19;;;16.38;100.00
15272;BME280;7737;51.578;7.268;2023-05-21T08:14:20;101074.53;;;16.48;100.00
15272;BME280;7737;51.578;7.268;2023-05-21T08:16:47;101080.06;;;16.59;100.00
15272;BME280;7737;51.578;7.268;2023-05-21T08:19:13;101069.66;;;16.54;100.00
15272;BME280;7737;51.578;7.268;2023-05-21T08:21:40;101081.44;;;16.52;100.00
15272;BME280;7737;51.578;7.268;2023-05-21T08:24:06;101084.91;;;16.54;100.00
15272;BME280;7737;51.578;7.268;2023-05-21T08:26:33;101079.91;;;16.48;100.00
15272;BME280;7737;51.578;7.268;2023-05-21T08:29:00;101089.00;;;16.84;100.00
15272;BME280;7737;51.578;7.268;2023-05-21T08:31:28;101088.38;;;17.06;100.00
15272;BME280;7737;51.578;7.268;2023-05-21T08:33:54;101085.69;;;17.06;100.00
15272;BME280;7737;51.578;7.268;2023-05-21T08:36:21;101084.81;;;16.93;100.00
15272;BME280;7737;51.578;7.268;2023-05-21T08:38:48;101085.78;;;17.17;100.00
15272;BME280;7737;51.578;7.268;2023-05-21T08:41:15;101088.16;;;17.09;100.00
15272;BME280;7737;51.578;7.268;2023-05-21T08:43:42;101090.28;;;17.29;100.00
15272;BME280;7737;51.578;7.268;2023-05-21T08:46:11;101080.69;;;17.63;100.00
15272;BME280;7737;51.578;7.268;2023-05-21T08:48:39;101067.34;;;17.85;100.00
15272;BME280;7737;51.578;7.268;2023-05-21T08:51:06;101068.09;;;18.11;100.00
15272;BME280;7737;51.578;7.268;2023-05-21T08:53:32;101065.13;;;18.50;100.00
15272;BME280;7737;51.578;7.268;2023-05-21T08:56:00;101062.34;;;18.39;100.00
15272;BME280;7737;51.578;7.268;2023-05-21T08:58:28;101063.53;;;18.24;100.00
15272;BME280;7737;51.578;7.268;2023-05-21T09:00:54;101061.81;;;17.76;100.00
15272;BME280;7737;51.578;7.268;2023-05-21T09:03:21;101061.91;;;18.21;100.00
15272;BME280;7737;51.578;7.268;2023-05-21T09:05:50;101066.31;;;18.22;100.00
15272;BME280;7737;51.578;7.268;2023-05-21T09:08:18;101070.16;;;18.31;100.00
15272;BME280;7737;51.578;7.268;2023-05-21T09:10:47;101059.56;;;17.93;100.00
15272;BME280;7737;51.578;7.268;2023-05-21T09:13:15;101046.56;;;18.46;100.00
15272;BME280;7737;51.578;7.268;2023-05-21T09:15:42;101053.44;;;18.84;100.00
15272;BME280;7737;51.578;7.268;2023-05-21T09:18:09;101046.19;;;18.74;100.00
15272;BME280;7737;51.578;7.268;2023-05-21T09:20:36;101046.09;;;18.87;100.00
15272;BME280;7737;51.578;7.268;2023-05-21T09:23:05;101048.47;;;18.56;100.00
15272;BME280;7737;51.578;7.268;2023-05-21T09:25:37;101044.09;;;18.43;100.00
15272;BME280;7737;51.578;7.268;2023-05-21T09:28:10;101027.97;;;19.11;100.00
15272;BME280;7737;51.578;7.268;2023-05-21T09:30:42;101028.69;;;18.91;100.00
15272;BME280;7737;51.578;7.268;2023-05-21T09:33:09;101023.78;;;18.73;100.00
15272;BME280;7737;51.578;7.268;2023-05-21T09:35:37;101024.53;;;18.87;100.00
15272;BME280;7737;51.578;7.268;2023-05-21T09:38:10;101021.00;;;19.19;100.00
15272;BME280;7737;51.578;7.268;2023-05-21T09:40:43;101009.84;;;19.13;100.00
15272;BME280;7737;51.578;7.268;2023-05-21T09:43:12;101015.47;;;19.32;100.00
15272;BME280;7737;51.578;7.268;2023-05-21T09:45:49;101011.53;;;19.36;100.00
15272;BME280;7737;51.578;7.268;2023-05-21T09:48:16;101006.06;;;19.37;100.00
15272;BME280;7737;51.578;7.268;2023-05-21T09:50:42;101013.50;;;19.12;100.00
15272;BME280;7737;51.578;7.268;2023-05-21T09:53:11;101002.84;;;19.21;100.00
15272;BME280;7737;51.578;7.268;2023-05-21T09:55:38;101007.69;;;19.72;100.00
15272;BME280;7737;51.578;7.268;2023-05-21T09:58:05;100999.47;;;19.73;100.00
15272;BME280;7737;51.578;7.268;2023-05-21T10:00:33;100994.34;;;19.59;100.00
15272;BME280;7737;51.578;7.268;2023-05-21T10:03:00;100991.44;;;19.29;100.00
15272;BME280;7737;51.578;7.268;2023-05-21T10:05:27;100993.78;;;19.44;100.00
15272;BME280;7737;51.578;7.268;2023-05-21T10:07:59;100990.09;;;19.23;100.00
15272;BME280;7737;51.578;7.268;2023-05-21T10:10:28;100975.09;;;19.95;100.00
15272;BME280;7737;51.578;7.268;2023-05-21T10:12:58;100981.41;;;19.42;100.00
15272;BME280;7737;51.578;7.268;2023-05-21T10:15:27;100976.38;;;19.80;100.00
15272;BME280;7737;51.578;7.268;2023-05-21T10:17:58;100965.09;;;19.75;100.00
15272;BME280;7737;51.578;7.268;2023-05-21T10:20:25;100977.00;;;20.04;100.00
15272;BME280;7737;51.578;7.268;2023-05-21T10:22:52;100971.88;;;19.70;100.00
15272;BME280;7737;51.578;7.268;2023-05-21T10:25:19;100970.06;;;19.91;100.00
15272;BME280;7737;51.578;7.268;2023-05-21T10:27:47;100976.22;;;19.93;100.00
15272;BME280;7737;51.578;7.268;2023-05-21T10:30:14;100970.66;;;19.74;100.00
15272;BME280;7737;51.578;7.268;2023-05-21T10:32:45;100970.91;;;20.23;100.00
15272;BME280;7737;51.578;7.268;2023-05-21T10:35:13;100963.03;;;19.99;100.00
15272;BME280;7737;51.578;7.268;2023-05-21T10:37:42;100972.34;;;20.07;100.00
15272;BME280;7737;51.578;7.268;2023-05-21T10:40:09;100955.19;;;20.49;100.00
15272;BME280;7737;51.578;7.268;2023-05-21T10:42:56;100951.69;;;20.37;100.00
15272;BME280;7737;51.578;7.268;2023-05-21T10:45:35;100950.59;;;20.40;100.00
15272;BME280;7737;51.578;7.268;2023-05-21T10:48:26;100954.56;;;20.36;100.00
15272;BME280;7737;51.578;7.268;2023-05-21T10:51:12;100956.69;;;20.42;100.00
15272;BME280;7737;51.578;7.268;2023-05-21T10:53:52;100961.81;;;20.03;100.00
15272;BME280;7737;51.578;7.268;2023-05-21T10:56:28;100960.06;;;20.34;100.00
15272;BME280;7737;51.578;7.268;2023-05-21T10:59:15;100962.22;;;20.20;100.00
15272;BME280;7737;51.578;7.268;2023-05-21T11:01:48;100958.53;;;20.41;100.00
15272;BME280;7737;51.578;7.268;2023-05-21T11:04:20;100945.56;;;21.16;100.00
15272;BME280;7737;51.578;7.268;2023-05-21T11:06:47;100935.50;;;20.98;100.00
15272;BME280;7737;51.578;7.268;2023-05-21T11:09:14;100944.91;;;21.03;100.00
15272;BME280;7737;51.578;7.268;2023-05-21T11:11:42;100936.94;;;20.62;100.00
15272;BME280;7737;51.578;7.268;2023-05-21T11:14:31;100945.78;;;20.43;100.00
15272;BME280;7737;51.578;7.268;2023-05-21T11:17:00;100939.00;;;21.09;100.00
15272;BME280;7737;51.578;7.268;2023-05-21T11:19:38;100935.22;;;20.91;100.00
15272;BME280;7737;51.578;7.268;2023-05-21T11:22:06;100926.19;;;20.81;100.00
15272;BME280;7737;51.578;7.268;2023-05-21T11:24:36;100942.81;;;21.07;100.00
15272;BME280;7737;51.578;7.268;2023-05-21T11:27:04;100933.13;;;20.74;100.00
15272;BME280;7737;51.578;7.268;2023-05-21T11:29:35;100936.63;;;20.95;100.00
15272;BME280;7737;51.578;7.268;2023-05-21T11:32:05;100936.72;;;21.14;100.00
15272;BME280;7737;51.578;7.268;2023-05-21T11:34:36;100932.69;;;20.99;100.00
15272;BME280;7737;51.578;7.268;2023-05-21T11:37:32;100924.78;;;21.27;100.00
15272;BME280;7737;51.578;7.268;2023-05-21T11:40:18;100919.97;;;20.90;100.00
15272;BME280;7737;51.578;7.268;2023-05-21T11:42:50;100915.81;;;21.16;100.00
15272;BME280;7737;51.578;7.268;2023-05-21T11:45:19;100926.94;;;21.33;100.00
15272;BME280;7737;51.578;7.268;2023-05-21T11:47:46;100925.81;;;21.26;100.00
15272;BME280;7737;51.578;7.268;2023-05-21T11:50:14;100930.13;;;21.57;100.00
15272;BME280;7737;51.578;7.268;2023-05-21T11:52:41;100918.59;;;21.55;100.00
15272;BME280;7737;51.578;7.268;2023-05-21T11:55:08;100922.50;;;21.12;100.00
15272;BME280;7737;51.578;7.268;2023-05-21T11:57:36;100928.50;;;21.26;100.00
15272;BME280;7737;51.578;7.268;2023-05-21T12:00:04;100916.56;;;21.28;100.00
15272;BME280;7737;51.578;7.268;2023-05-21T12:02:43;100910.63;;;21.63;100.00
15272;BME280;7737;51.578;7.268;2023-05-21T12:05:10;100902.34;;;22.12;100.00
15272;BME280;7737;51.578;7.268;2023-05-21T12:07:37;100893.72;;;22.36;100.00
15272;BME280;7737;51.578;7.268;2023-05-21T12:10:04;100898.34;;;21.78;100.00
15272;BME280;7737;51.578;7.268;2023-05-21T12:12:31;100901.09;;;21.97;100.00
15272;BME280;7737;51.578;7.268;2023-05-21T12:14:57;100897.84;;;22.40;100.00
15272;BME280;7737;51.578;7.268;2023-05-21T12:17:25;100892.13;;;22.43;100.00
15272;BME280;7737;51.578;7.268;2023-05-21T12:19:54;100898.09;;;22.66;100.00
15272;BME280;7737;51.578;7.268;2023-05-21T12:22:22;100892.53;;;22.48;100.00
15272;BME280;7737;51.578;7.268;2023-05-21T12:24:49;100885.44;;;22.37;100.00
15272;BME280;7737;51.578;7.268;2023-05-21T12:27:18;100889.94;;;22.56;100.00
15272;BME280;7737;51.578;7.268;2023-05-21T12:29:46;100880.97;;;22.65;100.00
15272;BME280;7737;51.578;7.268;2023-05-21T12:32:14;100882.22;;;22.71;100.00
15272;BME280;7737;51.578;7.268;2023-05-21T12:34:42;100881.63;;;22.77;100.00
15272;BME280;7737;51.578;7.268;2023-05-21T12:37:11;100869.41;;;22.54;100.00
15272;BME280;7737;51.578;7.268;2023-05-21T12:39:42;100876.34;;;23.02;100.00
15272;BME280;7737;51.578;7.268;2023-05-21T12:42:08;100869.06;;;23.03;100.00
15272;BME280;7737;51.578;7.268;2023-05-21T12:44:37;100867.97;;;22.69;100.00
15272;BME280;7737;51.578;7.268;2023-05-21T12:47:04;100856.66;;;23.45;100.00
15272;BME280;7737;51.578;7.268;2023-05-21T12:49:34;100847.72;;;23.71;100.00
15272;BME280;7737;51.578;7.268;2023-05-21T12:52:03;100850.81;;;23.76;100.00
15272;BME280;7737;51.578;7.268;2023-05-21T12:54:32;100843.25;;;22.99;100.00